sensor_id;sensor_type;location;lat;lon;timestamp;P1;durP1;ratioP1;P2;durP2;ratioP2
5805;SDS011;2929;50.810;8.342;2022-12-18T00:01:14;15.67;;;8.57;;
5805;SDS011;2929;50.810;8.342;2022-12-18T00:03:42;20.63;;;9.60;;
5805;SDS011;2929;50.810;8.342;2022-12-18T00:06:09;19.50;;;9.40;;
5805;SDS011;2929;50.810;8.342;2022-12-18T00:08:36;18.40;;;8.10;;
5805;SDS011;2929;50.810;8.342;2022-12-18T00:11:04;18.70;;;7.63;;
5805;SDS011;2929;50.810;8.342;2022-12-18T00:13:31;24.60;;;8.87;;
5805;SDS011;2929;50.810;8.342;2022-12-18T00:16:02;17.67;;;7.40;;
5805;SDS011;2929;50.810;8.342;2022-12-18T00:18:30;24.83;;;8.17;;
5805;SDS011;2929;50.810;8.342;2022-12-18T00:20:58;22.00;;;8.50;;
5805;SDS011;2929;50.810;8.342;2022-12-18T00:23:25;22.80;;;7.50;;
5805;SDS011;2929;50.810;8.342;2022-12-18T00:25:53;18.80;;;6.40;;
5805;SDS011;2929;50.810;8.342;2022-12-18T00:28:20;14.33;;;6.63;;
5805;SDS011;2929;50.810;8.342;2022-12-18T00:30:47;18.70;;;6.90;;
5805;SDS011;2929;50.810;8.342;2022-12-18T00:33:18;21.27;;;9.10;;
5805;SDS011;2929;50.810;8.342;2022-12-18T00:35:45;28.23;;;6.47;;
5805;SDS011;2929;50.810;8.342;2022-12-18T00:38:12;13.10;;;7.23;;
5805;SDS011;2929;50.810;8.342;2022-12-18T00:40:39;13.73;;;6.67;;
5805;SDS011;2929;50.810;8.342;2022-12-18T00:43:06;20.90;;;9.20;;
5805;SDS011;2929;50.810;8.342;2022-12-18T00:45:34;16.10;;;7.00;;
5805;SDS011;2929;50.810;8.342;2022-12-18T00:48:01;18.33;;;8.00;;
5805;SDS011;2929;50.810;8.342;2022-12-18T00:50:30;18.63;;;7.53;;
5805;SDS011;2929;50.810;8.342;2022-12-18T00:52:59;13.20;;;6.83;;
5805;SDS011;2929;50.810;8.342;2022-12-18T00:55:26;14.93;;;6.77;;
5805;SDS011;2929;50.810;8.342;2022-12-18T00:57:53;19.40;;;8.60;;
5805;SDS011;2929;50.810;8.342;2022-12-18T01:00:21;17.53;;;8.30;;
5805;SDS011;2929;50.810;8.342;2022-12-18T01:02:48;17.53;;;8.20;;
5805;SDS011;2929;50.810;8.342;2022-12-18T01:05:16;19.23;;;6.47;;
5805;SDS011;2929;50.810;8.342;2022-12-18T01:07:44;21.20;;;7.00;;
5805;SDS011;2929;50.810;8.342;2022-12-18T01:10:11;14.53;;;6.23;;
5805;SDS011;2929;50.810;8.342;2022-12-18T01:12:40;16.40;;;6.50;;
5805;SDS011;2929;50.810;8.342;2022-12-18T01:15:07;11.63;;;6.27;;
5805;SDS011;2929;50.810;8.342;2022-12-18T01:17:36;15.00;;;5.67;;
5805;SDS011;2929;50.810;8.342;2022-12-18T01:20:03;14.53;;;4.90;;
5805;SDS011;2929;50.810;8.342;2022-12-18T01:22:31;12.53;;;5.80;;
5805;SDS011;2929;50.810;8.342;2022-12-18T01:25:00;8.90;;;4.93;;
5805;SDS011;2929;50.810;8.342;2022-12-18T01:27:27;13.50;;;5.60;;
5805;SDS011;2929;50.810;8.342;2022-12-18T01:29:54;13.90;;;7.77;;
5805;SDS011;2929;50.810;8.342;2022-12-18T01:32:22;16.03;;;5.10;;
5805;SDS011;2929;50.810;8.342;2022-12-18T01:34:49;9.73;;;5.80;;
5805;SDS011;2929;50.810;8.342;2022-12-18T01:37:16;14.90;;;5.90;;
5805;SDS011;2929;50.810;8.342;2022-12-18T01:39:43;15.93;;;8.03;;
5805;SDS011;2929;50.810;8.342;2022-12-18T01:42:12;12.20;;;6.53;;
5805;SDS011;2929;50.810;8.342;2022-12-18T01:44:53;15.23;;;7.30;;
5805;SDS011;2929;50.810;8.342;2022-12-18T01:47:26;14.43;;;6.33;;
5805;SDS011;2929;50.810;8.342;2022-12-18T01:49:57;15.10;;;6.57;;
5805;SDS011;2929;50.810;8.342;2022-12-18T01:52:26;11.67;;;7.23;;
5805;SDS011;2929;50.810;8.342;2022-12-18T01:54:56;12.83;;;6.03;;
5805;SDS011;2929;50.810;8.342;2022-12-18T01:57:26;12.17;;;5.50;;
5805;SDS011;2929;50.810;8.342;2022-12-18T01:59:55;14.77;;;7.50;;
5805;SDS011;2929;50.810;8.342;2022-12-18T02:02:32;12.70;;;5.33;;
5805;SDS011;2929;50.810;8.342;2022-12-18T02:04:59;13.20;;;6.23;;
5805;SDS011;2929;50.810;8.342;2022-12-18T02:07:31;10.10;;;6.30;;
5805;SDS011;2929;50.810;8.342;2022-12-18T02:10:06;9.97;;;5.80;;
5805;SDS011;2929;50.810;8.342;2022-12-18T02:12:42;18.83;;;6.40;;
5805;SDS011;2929;50.810;8.342;2022-12-18T02:15:13;13.13;;;6.20;;
5805;SDS011;2929;50.810;8.342;2022-12-18T02:17:46;11.60;;;6.30;;
5805;SDS011;2929;50.810;8.342;2022-12-18T02:23:45;8.50;;;4.63;;
5805;SDS011;2929;50.810;8.342;2022-12-18T02:26:21;30.57;;;11.00;;
5805;SDS011;2929;50.810;8.342;2022-12-18T02:28:54;16.30;;;7.83;;
5805;SDS011;2929;50.810;8.342;2022-12-18T02:31:28;22.07;;;9.47;;
5805;SDS011;2929;50.810;8.342;2022-12-18T02:34:00;11.40;;;5.27;;
5805;SDS011;2929;50.810;8.342;2022-12-18T02:36:36;16.50;;;6.43;;
5805;SDS011;2929;50.810;8.342;2022-12-18T02:39:05;15.23;;;7.23;;
5805;SDS011;2929;50.810;8.342;2022-12-18T02:41:39;17.67;;;7.43;;
5805;SDS011;2929;50.810;8.342;2022-12-18T02:44:08;15.13;;;5.70;;
5805;SDS011;2929;50.810;8.342;2022-12-18T02:46:37;15.43;;;6.50;;
5805;SDS011;2929;50.810;8.342;2022-12-18T02:49:14;11.00;;;6.20;;
5805;SDS011;2929;50.810;8.342;2022-12-18T02:51:55;15.80;;;7.50;;
5805;SDS011;2929;50.810;8.342;2022-12-18T02:54:31;16.27;;;6.90;;
5805;SDS011;2929;50.810;8.342;2022-12-18T02:57:16;13.30;;;6.33;;
5805;SDS011;2929;50.810;8.342;2022-12-18T02:59:52;14.73;;;7.10;;
5805;SDS011;2929;50.810;8.342;2022-12-18T03:02:25;14.63;;;7.13;;
5805;SDS011;2929;50.810;8.342;2022-12-18T03:05:00;16.33;;;7.00;;
5805;SDS011;2929;50.810;8.342;2022-12-18T03:07:34;20.90;;;7.37;;
5805;SDS011;2929;50.810;8.342;2022-12-18T03:10:08;9.70;;;4.27;;
5805;SDS011;2929;50.810;8.342;2022-12-18T03:12:43;10.93;;;4.90;;
5805;SDS011;2929;50.810;8.342;2022-12-18T03:15:16;15.13;;;5.30;;
5805;SDS011;2929;50.810;8.342;2022-12-18T03:17:50;18.30;;;6.10;;
5805;SDS011;2929;50.810;8.342;2022-12-18T03:20:25;15.67;;;5.23;;
5805;SDS011;2929;50.810;8.342;2022-12-18T03:22:57;10.20;;;6.03;;
5805;SDS011;2929;50.810;8.342;2022-12-18T03:25:30;11.40;;;6.20;;
5805;SDS011;2929;50.810;8.342;2022-12-18T03:28:00;19.63;;;5.97;;
5805;SDS011;2929;50.810;8.342;2022-12-18T03:30:33;10.33;;;5.70;;
5805;SDS011;2929;50.810;8.342;2022-12-18T03:33:08;15.33;;;6.17;;
5805;SDS011;2929;50.810;8.342;2022-12-18T03:35:42;9.10;;;5.57;;
5805;SDS011;2929;50.810;8.342;2022-12-18T03:38:11;13.13;;;5.80;;
5805;SDS011;2929;50.810;8.342;2022-12-18T03:40:45;13.93;;;4.73;;
5805;SDS011;2929;50.810;8.342;2022-12-18T03:43:25;10.57;;;4.97;;
5805;SDS011;2929;50.810;8.342;2022-12-18T03:46:02;14.20;;;5.20;;
5805;SDS011;2929;50.810;8.342;2022-12-18T03:48:36;8.60;;;4.53;;
5805;SDS011;2929;50.810;8.342;2022-12-18T03:51:10;7.97;;;5.50;;
5805;SDS011;2929;50.810;8.342;2022-12-18T03:53:42;26.60;;;8.77;;
5805;SDS011;2929;50.810;8.342;2022-12-18T03:56:17;11.47;;;5.40;;
5805;SDS011;2929;50.810;8.342;2022-12-18T03:58:49;14.57;;;5.10;;
5805;SDS011;2929;50.810;8.342;2022-12-18T04:01:23;12.20;;;5.60;;
5805;SDS011;2929;50.810;8.342;2022-12-18T04:03:57;13.87;;;6.63;;
5805;SDS011;2929;50.810;8.342;2022-12-18T04:06:28;11.60;;;5.17;;
5805;SDS011;2929;50.810;8.342;2022-12-18T04:08:57;11.57;;;5.93;;
5805;SDS011;2929;50.810;8.342;2022-12-18T04:11:25;12.30;;;5.03;;
5805;SDS011;2929;50.810;8.342;2022-12-18T04:13:56;17.80;;;6.67;;
5805;SDS011;2929;50.810;8.342;2022-12-18T04:16:24;9.40;;;5.27;;
5805;SDS011;2929;50.810;8.342;2022-12-18T04:18:55;10.30;;;4.53;;
5805;SDS011;2929;50.810;8.342;2022-12-18T04:21:24;10.93;;;5.47;;
5805;SDS011;2929;50.810;8.342;2022-12-18T04:23:52;10.13;;;5.90;;
5805;SDS011;2929;50.810;8.342;2022-12-18T04:26:21;14.70;;;6.50;;
5805;SDS011;2929;50.810;8.342;2022-12-18T04:29:08;8.20;;;4.27;;
5805;SDS011;2929;50.810;8.342;2022-12-18T04:31:35;8.17;;;3.70;;
5805;SDS011;2929;50.810;8.342;2022-12-18T04:34:03;7.23;;;4.10;;
5805;SDS011;2929;50.810;8.342;2022-12-18T04:36:36;7.70;;;4.27;;
5805;SDS011;2929;50.810;8.342;2022-12-18T04:39:03;11.73;;;5.00;;
5805;SDS011;2929;50.810;8.342;2022-12-18T04:41:31;13.53;;;5.60;;
5805;SDS011;2929;50.810;8.342;2022-12-18T04:43:58;11.80;;;5.10;;
5805;SDS011;2929;50.810;8.342;2022-12-18T04:46:27;5.30;;;3.23;;
5805;SDS011;2929;50.810;8.342;2022-12-18T04:48:54;13.17;;;5.47;;
5805;SDS011;2929;50.810;8.342;2022-12-18T04:51:21;10.90;;;4.90;;
5805;SDS011;2929;50.810;8.342;2022-12-18T04:53:48;11.33;;;5.10;;
5805;SDS011;2929;50.810;8.342;2022-12-18T04:56:15;15.07;;;4.83;;
5805;SDS011;2929;50.810;8.342;2022-12-18T04:58:43;7.97;;;4.67;;
5805;SDS011;2929;50.810;8.342;2022-12-18T05:01:11;11.57;;;4.50;;
5805;SDS011;2929;50.810;8.342;2022-12-18T05:03:41;13.00;;;5.30;;
5805;SDS011;2929;50.810;8.342;2022-12-18T05:06:08;24.33;;;6.13;;
5805;SDS011;2929;50.810;8.342;2022-12-18T05:08:36;12.03;;;6.03;;
5805;SDS011;2929;50.810;8.342;2022-12-18T05:11:03;10.73;;;5.70;;
5805;SDS011;2929;50.810;8.342;2022-12-18T05:13:32;11.50;;;5.23;;
5805;SDS011;2929;50.810;8.342;2022-12-18T05:16:00;8.90;;;4.83;;
5805;SDS011;2929;50.810;8.342;2022-12-18T05:18:27;8.50;;;4.97;;
5805;SDS011;2929;50.810;8.342;2022-12-18T05:20:56;11.37;;;6.43;;
5805;SDS011;2929;50.810;8.342;2022-12-18T05:23:23;6.60;;;3.80;;
5805;SDS011;2929;50.810;8.342;2022-12-18T05:25:51;7.10;;;3.70;;
5805;SDS011;2929;50.810;8.342;2022-12-18T05:28:19;9.77;;;5.10;;
5805;SDS011;2929;50.810;8.342;2022-12-18T05:30:48;8.73;;;4.70;;
5805;SDS011;2929;50.810;8.342;2022-12-18T05:33:15;7.67;;;4.40;;
5805;SDS011;2929;50.810;8.342;2022-12-18T05:35:43;17.40;;;4.97;;
5805;SDS011;2929;50.810;8.342;2022-12-18T05:38:12;9.10;;;4.03;;
5805;SDS011;2929;50.810;8.342;2022-12-18T05:40:41;11.60;;;4.80;;
5805;SDS011;2929;50.810;8.342;2022-12-18T05:43:08;11.67;;;4.50;;
5805;SDS011;2929;50.810;8.342;2022-12-18T05:45:36;6.73;;;4.20;;
5805;SDS011;2929;50.810;8.342;2022-12-18T05:48:04;6.73;;;4.87;;
5805;SDS011;2929;50.810;8.342;2022-12-18T05:50:33;10.50;;;4.53;;
5805;SDS011;2929;50.810;8.342;2022-12-18T05:53:01;9.43;;;4.93;;
5805;SDS011;2929;50.810;8.342;2022-12-18T05:55:29;7.47;;;4.87;;
5805;SDS011;2929;50.810;8.342;2022-12-18T05:57:59;6.70;;;4.23;;
5805;SDS011;2929;50.810;8.342;2022-12-18T06:00:26;11.73;;;4.00;;
5805;SDS011;2929;50.810;8.342;2022-12-18T06:02:54;7.80;;;4.70;;
5805;SDS011;2929;50.810;8.342;2022-12-18T06:05:21;10.70;;;5.27;;
5805;SDS011;2929;50.810;8.342;2022-12-18T06:07:48;14.27;;;5.97;;
5805;SDS011;2929;50.810;8.342;2022-12-18T06:10:16;11.43;;;4.60;;
5805;SDS011;2929;50.810;8.342;2022-12-18T06:12:44;11.80;;;4.83;;
5805;SDS011;2929;50.810;8.342;2022-12-18T06:15:11;5.27;;;4.10;;
5805;SDS011;2929;50.810;8.342;2022-12-18T06:17:39;11.90;;;5.60;;
5805;SDS011;2929;50.810;8.342;2022-12-18T06:20:06;10.03;;;4.80;;
5805;SDS011;2929;50.810;8.342;2022-12-18T06:22:33;8.27;;;4.90;;
5805;SDS011;2929;50.810;8.342;2022-12-18T06:25:01;7.17;;;4.17;;
5805;SDS011;2929;50.810;8.342;2022-12-18T06:27:28;10.40;;;4.77;;
5805;SDS011;2929;50.810;8.342;2022-12-18T06:29:56;9.00;;;4.27;;
5805;SDS011;2929;50.810;8.342;2022-12-18T06:32:23;8.17;;;5.60;;
5805;SDS011;2929;50.810;8.342;2022-12-18T06:34:50;11.33;;;4.20;;
5805;SDS011;2929;50.810;8.342;2022-12-18T06:37:18;11.23;;;5.83;;
5805;SDS011;2929;50.810;8.342;2022-12-18T06:39:45;18.97;;;5.90;;
5805;SDS011;2929;50.810;8.342;2022-12-18T06:42:12;15.10;;;5.00;;
5805;SDS011;2929;50.810;8.342;2022-12-18T06:44:39;5.73;;;3.37;;
5805;SDS011;2929;50.810;8.342;2022-12-18T06:47:07;5.90;;;4.10;;
5805;SDS011;2929;50.810;8.342;2022-12-18T06:49:34;19.23;;;5.23;;
5805;SDS011;2929;50.810;8.342;2022-12-18T06:52:02;10.77;;;5.00;;
5805;SDS011;2929;50.810;8.342;2022-12-18T06:54:29;8.53;;;4.67;;
5805;SDS011;2929;50.810;8.342;2022-12-18T06:56:56;8.23;;;4.53;;
5805;SDS011;2929;50.810;8.342;2022-12-18T06:59:23;7.80;;;4.27;;
5805;SDS011;2929;50.810;8.342;2022-12-18T07:01:50;17.80;;;4.97;;
5805;SDS011;2929;50.810;8.342;2022-12-18T07:04:18;12.93;;;5.47;;
5805;SDS011;2929;50.810;8.342;2022-12-18T07:06:45;10.33;;;4.97;;
5805;SDS011;2929;50.810;8.342;2022-12-18T07:09:12;12.80;;;4.43;;
5805;SDS011;2929;50.810;8.342;2022-12-18T07:11:39;13.03;;;4.60;;
5805;SDS011;2929;50.810;8.342;2022-12-18T07:14:06;13.93;;;4.67;;
5805;SDS011;2929;50.810;8.342;2022-12-18T07:16:33;12.20;;;4.07;;
5805;SDS011;2929;50.810;8.342;2022-12-18T07:19:01;7.73;;;3.80;;
5805;SDS011;2929;50.810;8.342;2022-12-18T07:21:29;6.47;;;4.63;;
5805;SDS011;2929;50.810;8.342;2022-12-18T07:23:56;6.60;;;4.07;;
5805;SDS011;2929;50.810;8.342;2022-12-18T07:26:23;12.73;;;5.50;;
5805;SDS011;2929;50.810;8.342;2022-12-18T07:28:53;7.10;;;4.30;;
5805;SDS011;2929;50.810;8.342;2022-12-18T07:31:21;8.80;;;5.83;;
5805;SDS011;2929;50.810;8.342;2022-12-18T07:33:48;6.20;;;3.13;;
5805;SDS011;2929;50.810;8.342;2022-12-18T07:36:17;5.90;;;3.93;;
5805;SDS011;2929;50.810;8.342;2022-12-18T07:38:47;10.43;;;4.50;;
5805;SDS011;2929;50.810;8.342;2022-12-18T07:41:15;8.73;;;4.30;;
5805;SDS011;2929;50.810;8.342;2022-12-18T07:43:43;8.73;;;4.80;;
5805;SDS011;2929;50.810;8.342;2022-12-18T07:46:11;13.00;;;5.20;;
5805;SDS011;2929;50.810;8.342;2022-12-18T07:48:39;18.27;;;6.30;;
5805;SDS011;2929;50.810;8.342;2022-12-18T07:51:07;10.83;;;5.40;;
5805;SDS011;2929;50.810;8.342;2022-12-18T07:53:35;7.13;;;4.73;;
5805;SDS011;2929;50.810;8.342;2022-12-18T07:56:05;19.23;;;8.20;;
5805;SDS011;2929;50.810;8.342;2022-12-18T07:59:13;14.60;;;5.90;;
5805;SDS011;2929;50.810;8.342;2022-12-18T08:01:40;7.40;;;5.17;;
5805;SDS011;2929;50.810;8.342;2022-12-18T08:04:07;18.43;;;5.90;;
5805;SDS011;2929;50.810;8.342;2022-12-18T08:06:34;19.03;;;7.03;;
5805;SDS011;2929;50.810;8.342;2022-12-18T08:09:02;15.47;;;6.27;;
5805;SDS011;2929;50.810;8.342;2022-12-18T08:11:30;19.20;;;7.37;;
5805;SDS011;2929;50.810;8.342;2022-12-18T08:13:57;13.93;;;5.50;;
5805;SDS011;2929;50.810;8.342;2022-12-18T08:16:24;12.97;;;5.80;;
5805;SDS011;2929;50.810;8.342;2022-12-18T08:18:52;7.13;;;3.90;;
5805;SDS011;2929;50.810;8.342;2022-12-18T08:21:21;6.37;;;4.63;;
5805;SDS011;2929;50.810;8.342;2022-12-18T08:23:49;10.77;;;6.70;;
5805;SDS011;2929;50.810;8.342;2022-12-18T08:26:17;17.20;;;8.67;;
5805;SDS011;2929;50.810;8.342;2022-12-18T08:28:46;20.50;;;7.47;;
5805;SDS011;2929;50.810;8.342;2022-12-18T08:31:13;21.33;;;9.40;;
5805;SDS011;2929;50.810;8.342;2022-12-18T08:33:40;20.93;;;6.67;;
5805;SDS011;2929;50.810;8.342;2022-12-18T08:36:08;11.43;;;6.63;;
5805;SDS011;2929;50.810;8.342;2022-12-18T08:38:36;13.87;;;6.43;;
5805;SDS011;2929;50.810;8.342;2022-12-18T08:41:05;11.33;;;7.03;;
5805;SDS011;2929;50.810;8.342;2022-12-18T08:43:33;19.47;;;5.83;;
5805;SDS011;2929;50.810;8.342;2022-12-18T08:46:19;11.60;;;5.87;;
5805;SDS011;2929;50.810;8.342;2022-12-18T08:48:49;21.70;;;9.53;;
5805;SDS011;2929;50.810;8.342;2022-12-18T08:51:17;15.83;;;7.77;;
5805;SDS011;2929;50.810;8.342;2022-12-18T08:53:45;19.30;;;7.60;;
5805;SDS011;2929;50.810;8.342;2022-12-18T08:56:13;36.37;;;12.57;;
5805;SDS011;2929;50.810;8.342;2022-12-18T08:58:40;26.13;;;9.20;;
5805;SDS011;2929;50.810;8.342;2022-12-18T09:01:08;22.57;;;10.53;;
5805;SDS011;2929;50.810;8.342;2022-12-18T09:03:38;19.57;;;9.30;;
5805;SDS011;2929;50.810;8.342;2022-12-18T09:06:06;25.10;;;9.90;;
5805;SDS011;2929;50.810;8.342;2022-12-18T09:08:35;13.23;;;7.57;;
5805;SDS011;2929;50.810;8.342;2022-12-18T09:11:02;13.60;;;8.20;;
5805;SDS011;2929;50.810;8.342;2022-12-18T09:13:30;18.23;;;9.47;;
5805;SDS011;2929;50.810;8.342;2022-12-18T09:15:57;21.13;;;9.97;;
5805;SDS011;2929;50.810;8.342;2022-12-18T09:18:24;27.90;;;10.20;;
5805;SDS011;2929;50.810;8.342;2022-12-18T09:20:53;16.47;;;9.63;;
5805;SDS011;2929;50.810;8.342;2022-12-18T09:23:20;25.00;;;9.10;;
5805;SDS011;2929;50.810;8.342;2022-12-18T09:25:47;25.10;;;9.70;;
5805;SDS011;2929;50.810;8.342;2022-12-18T09:28:15;20.97;;;9.87;;
5805;SDS011;2929;50.810;8.342;2022-12-18T09:30:44;30.07;;;12.13;;
5805;SDS011;2929;50.810;8.342;2022-12-18T09:33:13;21.37;;;12.40;;
5805;SDS011;2929;50.810;8.342;2022-12-18T09:35:41;26.80;;;12.57;;
5805;SDS011;2929;50.810;8.342;2022-12-18T09:38:12;22.87;;;8.67;;
5805;SDS011;2929;50.810;8.342;2022-12-18T09:40:41;26.60;;;12.03;;
5805;SDS011;2929;50.810;8.342;2022-12-18T09:43:13;29.30;;;12.40;;
5805;SDS011;2929;50.810;8.342;2022-12-18T09:45:43;22.00;;;10.93;;
5805;SDS011;2929;50.810;8.342;2022-12-18T09:48:14;29.13;;;12.30;;
5805;SDS011;2929;50.810;8.342;2022-12-18T09:50:45;31.80;;;11.70;;
5805;SDS011;2929;50.810;8.342;2022-12-18T09:53:16;27.40;;;12.13;;
5805;SDS011;2929;50.810;8.342;2022-12-18T09:55:46;30.67;;;13.27;;
5805;SDS011;2929;50.810;8.342;2022-12-18T09:58:16;24.20;;;12.30;;
5805;SDS011;2929;50.810;8.342;2022-12-18T10:00:47;28.70;;;13.27;;
5805;SDS011;2929;50.810;8.342;2022-12-18T10:03:15;31.90;;;12.27;;
5805;SDS011;2929;50.810;8.342;2022-12-18T10:05:43;29.50;;;13.47;;
5805;SDS011;2929;50.810;8.342;2022-12-18T10:08:20;37.30;;;14.93;;
5805;SDS011;2929;50.810;8.342;2022-12-18T10:10:52;29.40;;;14.27;;
5805;SDS011;2929;50.810;8.342;2022-12-18T10:13:23;37.27;;;16.90;;
5805;SDS011;2929;50.810;8.342;2022-12-18T10:16:00;36.57;;;15.93;;
5805;SDS011;2929;50.810;8.342;2022-12-18T10:18:39;39.00;;;16.77;;
5805;SDS011;2929;50.810;8.342;2022-12-18T10:21:23;44.03;;;15.80;;
5805;SDS011;2929;50.810;8.342;2022-12-18T10:23:58;45.73;;;17.77;;
5805;SDS011;2929;50.810;8.342;2022-12-18T10:26:34;32.53;;;16.70;;
5805;SDS011;2929;50.810;8.342;2022-12-18T10:29:04;38.00;;;15.83;;
5805;SDS011;2929;50.810;8.342;2022-12-18T10:31:36;35.20;;;16.70;;
5805;SDS011;2929;50.810;8.342;2022-12-18T10:34:03;32.20;;;14.03;;
5805;SDS011;2929;50.810;8.342;2022-12-18T10:36:30;30.70;;;13.80;;
5805;SDS011;2929;50.810;8.342;2022-12-18T10:39:01;38.50;;;14.97;;
5805;SDS011;2929;50.810;8.342;2022-12-18T10:41:41;36.53;;;16.40;;
5805;SDS011;2929;50.810;8.342;2022-12-18T10:44:16;34.80;;;15.23;;
5805;SDS011;2929;50.810;8.342;2022-12-18T10:46:45;28.63;;;14.57;;
5805;SDS011;2929;50.810;8.342;2022-12-18T10:49:22;31.67;;;14.47;;
5805;SDS011;2929;50.810;8.342;2022-12-18T10:51:51;30.90;;;14.70;;
5805;SDS011;2929;50.810;8.342;2022-12-18T10:54:33;31.57;;;13.83;;
5805;SDS011;2929;50.810;8.342;2022-12-18T10:57:13;39.00;;;16.17;;
5805;SDS011;2929;50.810;8.342;2022-12-18T10:59:49;24.63;;;10.00;;
5805;SDS011;2929;50.810;8.342;2022-12-18T11:02:24;19.17;;;9.77;;
5805;SDS011;2929;50.810;8.342;2022-12-18T11:04:54;32.33;;;13.07;;
5805;SDS011;2929;50.810;8.342;2022-12-18T11:07:21;12.03;;;6.77;;
5805;SDS011;2929;50.810;8.342;2022-12-18T11:09:59;14.87;;;7.63;;
5805;SDS011;2929;50.810;8.342;2022-12-18T11:12:27;13.93;;;6.63;;
5805;SDS011;2929;50.810;8.342;2022-12-18T11:14:55;23.03;;;9.40;;
5805;SDS011;2929;50.810;8.342;2022-12-18T11:17:25;15.67;;;6.70;;
5805;SDS011;2929;50.810;8.342;2022-12-18T11:19:56;14.47;;;8.03;;
5805;SDS011;2929;50.810;8.342;2022-12-18T11:22:25;16.80;;;7.17;;
5805;SDS011;2929;50.810;8.342;2022-12-18T11:24:54;15.23;;;8.03;;
5805;SDS011;2929;50.810;8.342;2022-12-18T11:27:25;17.33;;;8.10;;
5805;SDS011;2929;50.810;8.342;2022-12-18T11:30:06;15.73;;;7.37;;
5805;SDS011;2929;50.810;8.342;2022-12-18T11:32:35;16.73;;;8.87;;
5805;SDS011;2929;50.810;8.342;2022-12-18T11:35:11;33.00;;;13.80;;
5805;SDS011;2929;50.810;8.342;2022-12-18T11:37:45;28.30;;;10.90;;
5805;SDS011;2929;50.810;8.342;2022-12-18T11:40:19;16.03;;;6.87;;
5805;SDS011;2929;50.810;8.342;2022-12-18T11:46:23;17.17;;;8.57;;
5805;SDS011;2929;50.810;8.342;2022-12-18T11:48:55;19.20;;;8.63;;
5805;SDS011;2929;50.810;8.342;2022-12-18T11:51:29;17.93;;;9.80;;
5805;SDS011;2929;50.810;8.342;2022-12-18T11:54:01;17.73;;;10.00;;
5805;SDS011;2929;50.810;8.342;2022-12-18T11:56:41;21.37;;;11.10;;
5805;SDS011;2929;50.810;8.342;2022-12-18T11:59:14;24.07;;;11.03;;
5805;SDS011;2929;50.810;8.342;2022-12-18T12:01:47;23.23;;;10.13;;
5805;SDS011;2929;50.810;8.342;2022-12-18T12:04:26;18.70;;;8.63;;
5805;SDS011;2929;50.810;8.342;2022-12-18T12:07:12;16.60;;;7.87;;
5805;SDS011;2929;50.810;8.342;2022-12-18T12:09:53;18.43;;;8.93;;
5805;SDS011;2929;50.810;8.342;2022-12-18T12:12:33;17.37;;;9.47;;
5805;SDS011;2929;50.810;8.342;2022-12-18T12:15:14;19.70;;;8.73;;
5805;SDS011;2929;50.810;8.342;2022-12-18T12:17:50;13.53;;;7.00;;
5805;SDS011;2929;50.810;8.342;2022-12-18T12:20:25;18.33;;;8.63;;
5805;SDS011;2929;50.810;8.342;2022-12-18T12:23:02;16.10;;;8.37;;
5805;SDS011;2929;50.810;8.342;2022-12-18T12:25:37;14.90;;;7.83;;
5805;SDS011;2929;50.810;8.342;2022-12-18T12:28:15;25.00;;;9.70;;
5805;SDS011;2929;50.810;8.342;2022-12-18T12:30:50;19.60;;;8.90;;
5805;SDS011;2929;50.810;8.342;2022-12-18T12:33:27;20.23;;;10.40;;
5805;SDS011;2929;50.810;8.342;2022-12-18T12:36:06;20.40;;;9.17;;
5805;SDS011;2929;50.810;8.342;2022-12-18T12:38:42;19.07;;;8.83;;
5805;SDS011;2929;50.810;8.342;2022-12-18T12:41:17;24.67;;;9.70;;
5805;SDS011;2929;50.810;8.342;2022-12-18T12:44:07;18.40;;;9.57;;
5805;SDS011;2929;50.810;8.342;2022-12-18T12:46:52;24.10;;;10.30;;
5805;SDS011;2929;50.810;8.342;2022-12-18T12:49:25;17.17;;;8.00;;
5805;SDS011;2929;50.810;8.342;2022-12-18T12:51:58;19.37;;;9.33;;
5805;SDS011;2929;50.810;8.342;2022-12-18T12:54:30;25.63;;;11.80;;
5805;SDS011;2929;50.810;8.342;2022-12-18T12:57:01;20.37;;;9.87;;
5805;SDS011;2929;50.810;8.342;2022-12-18T12:59:52;21.07;;;10.70;;
5805;SDS011;2929;50.810;8.342;2022-12-18T13:02:39;20.00;;;9.70;;
5805;SDS011;2929;50.810;8.342;2022-12-18T13:05:25;21.27;;;9.53;;
5805;SDS011;2929;50.810;8.342;2022-12-18T13:08:34;22.10;;;10.50;;
5805;SDS011;2929;50.810;8.342;2022-12-18T13:11:29;22.60;;;9.27;;
5805;SDS011;2929;50.810;8.342;2022-12-18T13:14:26;23.00;;;10.70;;
5805;SDS011;2929;50.810;8.342;2022-12-18T13:17:15;20.17;;;10.33;;
5805;SDS011;2929;50.810;8.342;2022-12-18T13:19:43;25.50;;;11.00;;
5805;SDS011;2929;50.810;8.342;2022-12-18T13:22:21;25.90;;;10.83;;
5805;SDS011;2929;50.810;8.342;2022-12-18T13:24:49;24.83;;;10.67;;
5805;SDS011;2929;50.810;8.342;2022-12-18T13:33:39;24.70;;;11.23;;
5805;SDS011;2929;50.810;8.342;2022-12-18T13:36:13;29.30;;;12.07;;
5805;SDS011;2929;50.810;8.342;2022-12-18T13:38:42;30.60;;;13.33;;
5805;SDS011;2929;50.810;8.342;2022-12-18T13:41:21;26.60;;;11.33;;
5805;SDS011;2929;50.810;8.342;2022-12-18T13:43:51;20.60;;;11.27;;
5805;SDS011;2929;50.810;8.342;2022-12-18T13:46:20;26.43;;;12.00;;
5805;SDS011;2929;50.810;8.342;2022-12-18T13:48:52;27.23;;;12.43;;
5805;SDS011;2929;50.810;8.342;2022-12-18T13:51:23;29.37;;;14.20;;
5805;SDS011;2929;50.810;8.342;2022-12-18T13:53:52;30.37;;;15.10;;
5805;SDS011;2929;50.810;8.342;2022-12-18T13:56:24;25.63;;;11.93;;
5805;SDS011;2929;50.810;8.342;2022-12-18T13:59:03;25.40;;;12.30;;
5805;SDS011;2929;50.810;8.342;2022-12-18T14:01:41;28.70;;;12.97;;
5805;SDS011;2929;50.810;8.342;2022-12-18T14:04:16;30.90;;;13.47;;
5805;SDS011;2929;50.810;8.342;2022-12-18T14:06:46;29.63;;;13.13;;
5805;SDS011;2929;50.810;8.342;2022-12-18T14:09:16;26.93;;;12.87;;
5805;SDS011;2929;50.810;8.342;2022-12-18T14:11:48;32.27;;;13.50;;
5805;SDS011;2929;50.810;8.342;2022-12-18T14:14:16;27.03;;;12.60;;
5805;SDS011;2929;50.810;8.342;2022-12-18T14:16:45;31.17;;;15.30;;
5805;SDS011;2929;50.810;8.342;2022-12-18T14:19:15;35.20;;;14.30;;
5805;SDS011;2929;50.810;8.342;2022-12-18T14:21:47;31.90;;;14.17;;
5805;SDS011;2929;50.810;8.342;2022-12-18T14:24:18;36.50;;;14.37;;
5805;SDS011;2929;50.810;8.342;2022-12-18T14:26:47;34.47;;;14.70;;
5805;SDS011;2929;50.810;8.342;2022-12-18T14:29:19;40.50;;;16.70;;
5805;SDS011;2929;50.810;8.342;2022-12-18T14:32:05;36.63;;;15.87;;
5805;SDS011;2929;50.810;8.342;2022-12-18T14:34:35;26.77;;;11.60;;
5805;SDS011;2929;50.810;8.342;2022-12-18T14:37:02;30.80;;;14.30;;
5805;SDS011;2929;50.810;8.342;2022-12-18T14:39:31;34.10;;;13.00;;
5805;SDS011;2929;50.810;8.342;2022-12-18T14:41:58;28.40;;;12.27;;
5805;SDS011;2929;50.810;8.342;2022-12-18T14:44:25;31.00;;;12.90;;
5805;SDS011;2929;50.810;8.342;2022-12-18T14:46:52;33.43;;;14.00;;
5805;SDS011;2929;50.810;8.342;2022-12-18T14:49:21;30.87;;;12.37;;
5805;SDS011;2929;50.810;8.342;2022-12-18T14:51:53;33.97;;;14.60;;
5805;SDS011;2929;50.810;8.342;2022-12-18T14:54:22;37.47;;;15.07;;
5805;SDS011;2929;50.810;8.342;2022-12-18T14:56:51;30.50;;;13.80;;
5805;SDS011;2929;50.810;8.342;2022-12-18T14:59:24;39.87;;;16.00;;
5805;SDS011;2929;50.810;8.342;2022-12-18T15:01:56;35.73;;;14.83;;
5805;SDS011;2929;50.810;8.342;2022-12-18T15:04:26;35.33;;;13.77;;
5805;SDS011;2929;50.810;8.342;2022-12-18T15:07:03;36.83;;;15.27;;
5805;SDS011;2929;50.810;8.342;2022-12-18T15:09:34;40.20;;;17.20;;
5805;SDS011;2929;50.810;8.342;2022-12-18T15:12:02;36.47;;;14.00;;
5805;SDS011;2929;50.810;8.342;2022-12-18T15:14:32;39.37;;;16.00;;
5805;SDS011;2929;50.810;8.342;2022-12-18T15:17:06;38.10;;;15.97;;
5805;SDS011;2929;50.810;8.342;2022-12-18T15:19:43;39.83;;;15.33;;
5805;SDS011;2929;50.810;8.342;2022-12-18T15:22:20;34.10;;;15.20;;
5805;SDS011;2929;50.810;8.342;2022-12-18T15:24:49;35.90;;;16.10;;
5805;SDS011;2929;50.810;8.342;2022-12-18T15:27:24;34.70;;;14.10;;
5805;SDS011;2929;50.810;8.342;2022-12-18T15:32:47;40.97;;;15.67;;
5805;SDS011;2929;50.810;8.342;2022-12-18T15:35:16;33.67;;;14.60;;
5805;SDS011;2929;50.810;8.342;2022-12-18T15:37:47;36.07;;;15.47;;
5805;SDS011;2929;50.810;8.342;2022-12-18T15:40:15;44.63;;;16.27;;